Time;durP1;ratioP1;P1;durP2;ratioP2;P2;SDS_P1;SDS_P2;PMS_P1;PMS_P2;Temp;Humidity;BMP_temperature;BMP_pressure;BME280_temperature;BME280_humidity;BME280_pressure;Samples;Min_cycle;Max_cycle;Signal;HPM_P1;HPM_P2
2022/01/18 00:01:30;;;;;;;15.52;8.77;;;5.10;99.90;;;;;;5170515;28;20053;-77
2022/01/18 00:04:03;;;;;;;15.93;8.75;;;;;;;;;;5146521;28;20677;-76
2022/01/18 00:06:38;;;;;;;16.65;9.35;;;3.50;99.90;;;;;;5172230;28;20056;-77
2022/01/18 00:09:11;;;;;;;15.43;8.75;;;5.00;99.90;;;;;;5167062;28;20037;-80
2022/01/18 00:11:49;;;;;;;16.13;9.25;;;;;;;;;;5160367;28;20042;-76
2022/01/18 00:14:25;;;;;;;17.92;9.07;;;;;;;;;;5180330;28;20049;-78
2022/01/18 00:17:41;;;;;;;15.93;9.02;;;;;;;;;;5152440;28;20457;-77
2022/01/18 00:19:57;;;;;;;17.63;9.32;;;;;;;;;;5164374;28;20052;-80
2022/01/18 00:22:31;;;;;;;16.42;9.55;;;;;;;;;;5168335;28;20046;-78
2022/01/18 00:25:04;;;;;;;16.35;9.02;;;;;;;;;;5162932;28;20142;-77
2022/01/18 00:27:36;;;;;;;17.90;9.10;;;;;;;;;;5167415;28;20072;-79
2022/01/18 00:30:50;;;;;;;16.08;9.25;;;4.40;99.90;;;;;;5170347;28;21989;-80
2022/01/18 00:33:21;;;;;;;17.23;8.82;;;;;;;;;;5164817;28;20126;-79
2022/01/18 00:36:02;;;;;;;13.57;8.45;;;;;;;;;;5153030;28;20042;-80
2022/01/18 00:38:47;;;;;;;17.75;9.40;;;;;;;;;;5180514;28;20045;-79
2022/01/18 00:41:21;;;;;;;16.02;8.50;;;4.40;99.90;;;;;;5173395;28;20064;-81
2022/01/18 00:43:54;;;;;;;15.25;8.68;;;4.40;99.90;;;;;;5178627;28;20049;-80
2022/01/18 00:46:27;;;;;;;16.60;9.07;;;;;;;;;;5194616;28;20054;-80
2022/01/18 00:49:02;;;;;;;16.67;8.87;;;4.40;99.90;;;;;;5193567;28;20041;-77
2022/01/18 00:51:38;;;;;;;17.50;9.45;;;4.50;99.90;;;;;;5201117;28;20683;-80
2022/01/18 00:54:21;;;;;;;19.13;9.00;;;6.30;99.90;;;;;;5171539;28;20049;-82
2022/01/18 00:56:54;;;;;;;17.55;10.13;;;5.20;99.90;;;;;;5167212;28;20543;-80
2022/01/18 00:59:27;;;;;;;;;;;4.40;99.90;;;;;;5182963;28;20042;-79
2022/01/18 01:01:59;;;;;;;15.40;8.77;;;;;;;;;;5191806;28;19929;-78
2022/01/18 01:04:37;;;;;;;17.70;9.30;;;;;;;;;;5185352;28;20053;-79
2022/01/18 01:07:09;;;;;;;20.13;9.70;;;3.20;99.90;;;;;;5183532;28;20299;-79
2022/01/18 01:09:42;;;;;;;18.63;10.52;;;;;;;;;;5183716;28;20524;-79
2022/01/18 01:12:17;;;;;;;18.13;9.60;;;;;;;;;;5183450;28;20080;-79
2022/01/18 01:14:52;;;;;;;18.52;9.80;;;;;;;;;;5161561;28;20046;-79
2022/01/18 01:34:34;;;;;;;17.58;9.95;;;;;;;;;;5160084;28;20053;-77
2022/01/18 01:43:20;;;;;;;20.55;11.95;;;;;;;;;;5182649;28;20045;-80
2022/01/18 01:45:54;;;;;;;22.20;12.75;;;3.90;99.90;;;;;;5174216;28;20584;-80
2022/01/18 01:48:26;;;;;;;;;;;4.10;99.90;;;;;;5178901;28;20050;-78
2022/01/18 01:51:05;;;;;;;20.35;9.52;;;;;;;;;;5179028;28;19925;-78
2022/01/18 01:53:37;;;;;;;19.75;10.45;;;;;;;;;;5181329;28;20042;-79
2022/01/18 01:56:10;;;;;;;21.80;11.15;;;;;;;;;;5181029;28;20042;-79
2022/01/18 01:58:43;;;;;;;19.13;10.50;;;;;;;;;;5198589;28;20049;-78
2022/01/18 02:01:16;;;;;;;23.63;11.55;;;;;;;;;;5176013;28;20061;-79
2022/01/18 02:03:49;;;;;;;22.40;12.10;;;;;;;;;;5178162;28;20045;-77
2022/01/18 02:06:23;;;;;;;24.13;10.93;;;;;;;;;;5169388;28;20057;-79
2022/01/18 02:08:56;;;;;;;21.58;12.40;;;;;;;;;;5182998;28;20636;-78
2022/01/18 02:11:28;;;;;;;22.02;11.52;;;;;;;;;;5182315;28;20057;-78
2022/01/18 02:14:02;;;;;;;20.57;11.30;;;;;;;;;;5177325;28;20041;-78
2022/01/18 02:22:19;;;;;;;23.08;11.60;;;;;;;;;;5174626;28;20050;-80
2022/01/18 02:24:52;;;;;;;22.20;11.18;;;;;;;;;;5161833;28;20057;-79
2022/01/18 02:27:24;;;;;;;22.05;12.27;;;;;;;;;;5182932;28;20053;-79
2022/01/18 02:29:57;;;;;;;20.90;10.95;;;;;;;;;;5182010;28;20577;-78
2022/01/18 02:32:30;;;;;;;22.07;11.73;;;;;;;;;;5159919;28;20049;-81
2022/01/18 02:35:03;;;;;;;22.00;11.60;;;4.00;99.90;;;;;;5176193;28;20551;-78
2022/01/18 02:37:36;;;;;;;24.67;11.82;;;;;;;;;;5179233;28;20041;-81
2022/01/18 02:40:09;;;;;;;20.60;12.02;;;;;;;;;;5180233;28;20162;-79
2022/01/18 02:42:45;;;;;;;21.35;11.15;;;;;;;;;;5179395;28;20064;-81
2022/01/18 02:45:18;;;;;;;23.67;12.20;;;;;;;;;;5177520;28;20056;-78
2022/01/18 02:47:51;;;;;;;18.52;11.23;;;;;;;;;;5175849;28;20721;-81
2022/01/18 02:50:24;;;;;;;21.27;11.20;;;;;;;;;;5175879;28;20049;-76
2022/01/18 02:52:57;;;;;;;24.02;11.88;;;;;;;;;;5161522;28;20049;-78
2022/01/18 02:55:30;;;;;;;21.10;11.98;;;;;;;;;;5181711;28;20676;-78
2022/01/18 02:58:08;;;;;;;24.05;12.48;;;;;;;;;;5171258;28;20053;-78
2022/01/18 03:03:10;;;;;;;19.90;11.13;;;;;;;;;;5170155;28;20046;-79
2022/01/18 03:03:37;;;;;;;22.10;11.80;;;4.10;99.90;;;;;;5169186;28;20842;-79
2022/01/18 03:06:09;;;;;;;;;;;4.20;99.90;;;;;;5162435;28;20042;-80
2022/01/18 03:08:42;;;;;;;24.48;12.55;;;;;;;;;;5182426;28;19928;-77
2022/01/18 03:11:15;;;;;;;22.42;12.15;;;;;;;;;;5193881;28;20398;-79
2022/01/18 03:13:48;;;;;;;22.00;12.73;;;;;;;;;;5176332;28;20080;-78
2022/01/18 03:16:20;;;;;;;21.58;12.68;;;;;;;;;;5179584;28;20401;-80
2022/01/18 03:18:53;;;;;;;23.10;11.60;;;;;;;;;;5192694;28;20057;-78
2022/01/18 03:21:26;;;;;;;21.50;11.20;;;;;;;;;;5176374;28;20060;-79
2022/01/18 03:24:12;;;;;;;24.60;13.15;;;;;;;;;;5175300;28;20050;-80
2022/01/18 03:29:37;;;;;;;23.42;12.82;;;;;;;;;;5161961;28;20037;-78
2022/01/18 03:32:10;;;;;;;22.90;12.67;;;;;;;;;;5177799;28;20040;-80
2022/01/18 03:34:43;;;;;;;22.13;11.88;;;;;;;;;;5176867;28;20045;-80
2022/01/18 03:37:16;;;;;;;22.42;11.48;;;;;;;;;;5168852;28;20030;-80
2022/01/18 03:39:49;;;;;;;24.73;12.00;;;;;;;;;;5180064;28;20042;-79
2022/01/18 03:45:03;;;;;;;25.73;13.55;;;;;;;;;;5174762;28;20049;-78
2022/01/18 03:47:36;;;;;;;27.00;13.25;;;;;;;;;;5161666;28;20061;-81
2022/01/18 03:50:10;;;;;;;27.03;13.80;;;4.10;99.90;;;;;;5178919;28;20037;-80
2022/01/18 03:52:45;;;;;;;27.92;13.95;;;4.10;99.90;;;;;;5178760;28;20776;-80
2022/01/18 03:55:29;;;;;;;23.33;12.85;;;;;;;;;;5176168;28;20041;-77
2022/01/18 03:58:02;;;;;;;29.02;14.95;;;;;;;;;;5177474;28;20064;-77
2022/01/18 04:00:36;;;;;;;;;;;4.10;99.90;;;;;;5176184;28;20041;-78
2022/01/18 04:03:08;;;;;;;28.98;14.25;;;;;;;;;;5195306;28;19921;-79
2022/01/18 04:05:42;;;;;;;31.45;15.30;;;;;;;;;;5191826;28;20038;-78
2022/01/18 04:08:15;;;;;;;29.15;14.43;;;;;;;;;;5192781;28;20042;-78
2022/01/18 04:10:48;;;;;;;27.53;13.83;;;;;;;;;;5174861;28;20715;-79
2022/01/18 04:13:21;;;;;;;28.13;13.90;;;;;;;;;;5177783;28;20049;-78
2022/01/18 04:15:54;;;;;;;25.67;12.70;;;4.10;99.90;;;;;;5171051;28;20049;-78
2022/01/18 04:19:32;;;;;;;28.92;13.90;;;;;;;;;;5199392;28;20052;-80
2022/01/18 04:27:09;;;;;;;28.13;14.93;;;;;;;;;;5187359;28;20117;-78
2022/01/18 04:29:41;;;;;;;30.63;15.88;;;;;;;;;;5179635;28;20056;-79
2022/01/18 04:32:14;;;;;;;23.83;13.30;;;;;;;;;;5180146;28;20053;-79
2022/01/18 04:34:47;;;;;;;29.83;15.32;;;;;;;;;;5168692;28;20089;-78
2022/01/18 04:37:20;;;;;;;30.02;15.95;;;;;;;;;;5185060;28;20064;-79
2022/01/18 04:39:53;;;;;;;33.13;14.82;;;;;;;;;;5186150;28;20046;-79
2022/01/18 04:48:31;;;;;;;25.80;13.98;;;;;;;;;;5178022;28;20290;-80
2022/01/18 04:51:08;;;;;;;32.40;15.23;;;4.10;99.90;;;;;;5151928;28;20984;-78
2022/01/18 04:53:52;;;;;;;30.95;14.60;;;4.10;99.90;;;;;;5177325;28;20060;-79
2022/01/18 04:57:51;;;;;;;30.75;15.60;;;4.10;99.90;;;;;;5166289;28;20064;-80
2022/01/18 04:59:20;;;;;;;30.90;14.75;;;;;;;;;;5170221;28;20038;-79
2022/01/18 05:01:55;;;;;;;32.03;15.65;;;;;;;;;;5174658;28;20057;-77
2022/01/18 05:04:28;;;;;;;31.70;16.05;;;;;;;;;;5178585;28;20049;-76
2022/01/18 05:07:01;;;;;;;32.80;15.57;;;;;;;;;;5177377;28;20050;-78
2022/01/18 05:09:34;;;;;;;32.43;17.60;;;;;;;;;;5163789;28;20044;-79
2022/01/18 05:12:14;;;;;;;32.35;15.43;;;;;;;;;;5170033;28;20042;-79
2022/01/18 05:14:48;;;;;;;34.30;16.23;;;;;;;;;;5183802;28;20061;-77
2022/01/18 05:20:40;;;;;;;30.45;14.77;;;;;;;;;;5169874;28;20049;-79
2022/01/18 05:23:13;;;;;;;31.13;15.85;;;;;;;;;;5167519;28;20046;-80
2022/01/18 05:25:46;;;;;;;32.65;15.10;;;;;;;;;;5170656;28;20611;-78
2022/01/18 05:28:19;;;;;;;29.92;15.32;;;;;;;;;;5152795;28;20422;-80
2022/01/18 05:30:52;;;;;;;34.17;16.27;;;;;;;;;;5168575;28;20057;-78
2022/01/18 05:33:25;;;;;;;30.63;14.90;;;;;;;;;;5154569;28;20053;-77
2022/01/18 05:35:58;;;;;;;34.17;15.48;;;;;;;;;;5181795;28;20045;-77
2022/01/18 05:38:32;;;;;;;30.13;14.95;;;;;;;;;;5157989;28;20049;-77
2022/01/18 05:41:06;;;;;;;31.38;15.57;;;3.70;99.90;;;;;;5148533;28;20050;-77
2022/01/18 05:43:39;;;;;;;28.80;14.13;;;;;;;;;;5172411;28;20420;-78
2022/01/18 05:46:12;;;;;;;29.87;15.07;;;;;;;;;;5180474;28;20087;-79
2022/01/18 05:48:45;;;;;;;31.55;15.20;;;;;;;;;;5165993;28;20060;-77
2022/01/18 05:51:18;;;;;;;31.48;15.18;;;;;;;;;;5150958;28;20056;-77
2022/01/18 05:53:51;;;;;;;29.90;16.13;;;;;;;;;;5172481;28;20048;-76
2022/01/18 05:56:24;;;;;;;33.03;15.40;;;3.40;99.90;;;;;;5157440;28;20057;-77
2022/01/18 05:59:01;;;;;;;31.85;15.63;;;;;;;;;;5164941;28;20437;-77
2022/01/18 06:01:38;;;;;;;32.83;15.32;;;;;;;;;;5170552;28;20038;-77
2022/01/18 06:06:50;;;;;;;32.60;16.42;;;;;;;;;;5146370;28;20049;-78
2022/01/18 06:07:04;;;;;;;40.25;21.50;;;;;;;;;;5141763;28;20049;-76
2022/01/18 06:09:37;;;;;;;44.93;24.97;;;;;;;;;;5174505;28;20049;-76
2022/01/18 06:12:09;;;;;;;46.10;24.33;;;;;;;;;;5159282;28;20037;-72
2022/01/18 06:14:43;;;;;;;38.30;19.27;;;;;;;;;;5164919;28;20533;-76
2022/01/18 06:17:16;;;;;;;35.67;18.88;;;;;;;;;;5174446;28;20098;-78
2022/01/18 06:19:49;;;;;;;36.33;19.10;;;;;;;;;;5184600;28;20547;-74
2022/01/18 06:22:22;;;;;;;43.33;19.05;;;;;;;;;;5182520;28;20045;-76
2022/01/18 06:24:55;;;;;;;36.00;18.40;;;;;;;;;;5184996;28;20049;-75
2022/01/18 06:27:27;;;;;;;37.50;17.30;;;;;;;;;;5182633;28;20076;-77
2022/01/18 06:30:00;;;;;;;35.15;16.77;;;;;;;;;;5171789;28;20049;-76
2022/01/18 06:32:33;;;;;;;39.67;17.00;;;;;;;;;;5178026;28;20500;-76
2022/01/18 06:35:07;;;;;;;31.55;15.30;;;2.90;99.90;;;;;;5195224;28;20052;-75
2022/01/18 06:37:41;;;;;;;28.45;15.07;;;2.90;99.90;;;;;;5144311;28;20052;-77
2022/01/18 06:40:14;;;;;;;32.03;16.00;;;;;;;;;;5184308;28;20061;-77
2022/01/18 06:42:46;;;;;;;28.73;14.20;;;;;;;;;;5188961;28;20048;-78
2022/01/18 06:45:19;;;;;;;28.63;14.65;;;;;;;;;;5186291;28;20052;-76
2022/01/18 06:47:52;;;;;;;26.75;13.35;;;;;;;;;;5186362;28;20052;-77
2022/01/18 06:50:25;;;;;;;32.23;16.77;;;;;;;;;;5174283;28;20045;-77
2022/01/18 06:52:59;;;;;;;30.42;15.23;;;;;;;;;;5184210;28;20157;-77
2022/01/18 06:55:32;;;;;;;;;;;2.70;99.90;;;;;;5166492;28;20046;-76
2022/01/18 06:58:05;;;;;;;26.13;14.27;;;;;;;;;;5184036;28;19926;-77
2022/01/18 07:00:38;;;;;;;31.35;15.07;;;;;;;;;;5183385;28;20424;-76
2022/01/18 07:03:11;;;;;;;31.52;13.82;;;;;;;;;;5184569;28;20045;-77
2022/01/18 07:05:43;;;;;;;33.20;15.18;;;;;;;;;;5182928;28;20068;-76
2022/01/18 07:08:20;;;;;;;33.10;14.73;;;;;;;;;;5201038;28;20128;-78
2022/01/18 07:10:53;;;;;;;32.80;14.82;;;;;;;;;;5183132;28;20046;-76
2022/01/18 07:13:26;;;;;;;32.45;14.95;;;;;;;;;;5184764;28;20069;-75
2022/01/18 07:15:59;;;;;;;31.42;15.52;;;;;;;;;;5177579;28;20049;-77
2022/01/18 07:18:32;;;;;;;29.45;13.93;;;;;;;;;;5184506;28;20723;-76
2022/01/18 07:21:04;;;;;;;35.28;16.17;;;;;;;;;;5182498;28;20659;-76
2022/01/18 07:23:38;;;;;;;31.17;16.13;;;;;;;;;;5199522;28;20053;-76
2022/01/18 07:26:15;;;;;;;31.15;15.15;;;;;;;;;;5185828;28;20048;-75
2022/01/18 07:28:47;;;;;;;33.30;15.52;;;;;;;;;;5184194;28;20056;-76
2022/01/18 07:31:20;;;;;;;32.67;15.15;;;;;;;;;;5153520;28;20064;-76
2022/01/18 07:33:53;;;;;;;38.90;17.38;;;;;;;;;;5183930;28;20563;-78
2022/01/18 07:36:26;;;;;;;33.67;15.93;;;;;;;;;;5183886;28;20061;-77
2022/01/18 07:38:58;;;;;;;35.92;16.98;;;;;;;;;;5181928;28;20056;-75
2022/01/18 07:41:31;;;;;;;32.88;16.88;;;;;;;;;;5182854;28;20057;-78
2022/01/18 07:44:05;;;;;;;34.90;17.80;;;;;;;;;;5183193;28;20049;-76
2022/01/18 07:46:38;;;;;;;37.08;18.48;;;;;;;;;;5166682;28;20679;-77
2022/01/18 07:49:10;;;;;;;37.63;17.10;;;;;;;;;;5184619;28;20053;-76
2022/01/18 07:51:43;;;;;;;36.92;17.33;;;;;;;;;;5166895;28;20053;-77
2022/01/18 07:54:16;;;;;;;35.00;17.65;;;;;;;;;;5160046;28;20041;-77
2022/01/18 07:56:49;;;;;;;37.08;17.92;;;;;;;;;;5188137;28;20041;-75
2022/01/18 07:59:22;;;;;;;38.00;18.85;;;;;;;;;;5190209;28;20485;-76
2022/01/18 08:01:55;;;;;;;36.20;16.23;;;;;;;;;;5191082;28;20056;-77
2022/01/18 08:04:28;;;;;;;33.70;15.77;;;;;;;;;;5183960;28;20053;-79
2022/01/18 08:07:01;;;;;;;38.37;16.67;;;;;;;;;;5189256;28;20057;-76
2022/01/18 08:09:34;;;;;;;36.47;17.63;;;;;;;;;;5189402;28;20060;-77
2022/01/18 08:12:07;;;;;;;38.63;17.43;;;;;;;;;;5190843;28;20551;-78
2022/01/18 08:14:45;;;;;;;37.13;19.08;;;;;;;;;;5200692;28;20069;-77
2022/01/18 08:17:18;;;;;;;41.97;19.85;;;;;;;;;;5186402;28;20045;-76
2022/01/18 08:19:50;;;;;;;42.97;22.00;;;;;;;;;;5189554;28;20404;-77
2022/01/18 08:22:23;;;;;;;42.23;18.63;;;;;;;;;;5194333;28;20045;-76
2022/01/18 08:24:56;;;;;;;47.10;21.00;;;;;;;;;;5186112;28;20420;-77
2022/01/18 08:27:28;;;;;;;45.17;20.87;;;;;;;;;;5190278;28;20046;-78
2022/01/18 08:30:01;;;;;;;42.92;19.55;;;;;;;;;;5205009;28;20785;-78
2022/01/18 08:32:34;;;;;;;42.58;21.17;;;;;;;;;;5190930;28;20053;-77
2022/01/18 08:35:08;;;;;;;41.72;19.90;;;;;;;;;;5174182;28;20056;-76
2022/01/18 08:37:41;;;;;;;45.38;22.40;;;;;;;;;;5190324;28;20038;-77
2022/01/18 08:40:14;;;;;;;49.63;25.05;;;;;;;;;;5178772;28;20523;-76
2022/01/18 08:42:46;;;;;;;52.67;22.23;;;;;;;;;;5192002;28;20591;-77
2022/01/18 08:45:19;;;;;;;45.58;20.70;;;;;;;;;;5205301;28;20319;-75
2022/01/18 08:47:52;;;;;;;42.33;19.27;;;;;;;;;;5177331;28;20041;-77
2022/01/18 08:50:25;;;;;;;35.05;17.80;;;;;;;;;;5177837;28;20528;-77
2022/01/18 08:52:58;;;;;;;38.35;18.77;;;;;;;;;;5189299;28;20053;-77
2022/01/18 08:55:34;;;;;;;42.72;20.40;;;;;;;;;;5188051;28;20068;-76
2022/01/18 08:58:08;;;;;;;41.67;19.73;;;;;;;;;;5188499;28;20412;-77
2022/01/18 09:00:41;;;;;;;42.22;18.83;;;;;;;;;;5178632;28;20082;-77
2022/01/18 09:03:14;;;;;;;39.42;20.05;;;;;;;;;;5178054;28;20049;-78
2022/01/18 09:05:47;;;;;;;34.60;17.77;;;;;;;;;;5187188;28;20052;-78
2022/01/18 09:08:21;;;;;;;36.33;18.33;;;;;;;;;;5169888;28;20045;-76
2022/01/18 09:10:54;;;;;;;43.35;18.27;;;;;;;;;;5200972;28;20045;-77
2022/01/18 09:13:28;;;;;;;39.17;18.65;;;;;;;;;;5187534;28;20520;-75
2022/01/18 09:16:02;;;;;;;41.97;18.65;;;4.00;99.90;;;;;;5177179;28;20049;-76
2022/01/18 09:18:36;;;;;;;38.30;18.30;;;4.10;99.90;;;;;;5181373;28;20484;-76
2022/01/18 09:21:09;;;;;;;39.60;18.50;;;;;;;;;;5204686;28;20048;-78
2022/01/18 09:23:42;;;;;;;46.28;17.60;;;;;;;;;;5184814;28;20640;-75
2022/01/18 09:26:15;;;;;;;38.58;17.30;;;;;;;;;;5201989;28;20046;-77
2022/01/18 09:28:47;;;;;;;36.13;17.15;;;;;;;;;;5167059;28;20062;-76
2022/01/18 09:31:20;;;;;;;39.67;18.10;;;;;;;;;;5165432;28;20084;-76
2022/01/18 09:33:53;;;;;;;42.30;18.38;;;;;;;;;;5182778;28;20042;-77
2022/01/18 09:36:26;;;;;;;38.30;18.23;;;;;;;;;;5175354;28;20061;-77
2022/01/18 09:38:59;;;;;;;36.78;15.95;;;;;;;;;;5183133;28;20042;-77
2022/01/18 09:41:37;;;;;;;36.13;16.65;;;4.20;99.90;;;;;;5188220;28;20773;-76
2022/01/18 09:44:10;;;;;;;38.45;16.92;;;;;;;;;;5168538;28;20038;-77
2022/01/18 09:46:43;;;;;;;38.13;16.43;;;;;;;;;;5163643;28;20050;-75
2022/01/18 09:49:17;;;;;;;39.55;16.85;;;;;;;;;;5168709;28;20046;-77
2022/01/18 09:51:49;;;;;;;;;;;4.30;99.90;;;;;;5165909;28;20414;-78
2022/01/18 09:54:22;;;;;;;31.65;15.45;;;;;;;;;;5162144;28;19936;-77
2022/01/18 09:56:56;;;;;;;28.48;13.90;;;4.40;99.90;;;;;;5151706;28;20411;-79
2022/01/18 09:59:29;;;;;;;34.63;14.35;;;;;;;;;;5166512;28;20126;-77
2022/01/18 10:02:03;;;;;;;36.20;14.43;;;;;;;;;;5145423;28;20046;-75
2022/01/18 10:04:41;;;;;;;24.27;12.18;;;4.40;99.90;;;;;;5165601;28;20494;-78
2022/01/18 10:07:14;;;;;;;27.73;12.40;;;;;;;;;;5151272;28;20053;-78
2022/01/18 10:09:58;;;;;;;25.70;12.15;;;4.40;99.90;;;;;;5166490;28;20058;-79
2022/01/18 10:12:31;;;;;;;;;;;4.50;99.90;;;;;;5157173;28;20057;-78
2022/01/18 10:15:04;;;;;;;32.13;12.77;;;4.40;99.90;;;;;;5180714;28;19925;-76
2022/01/18 10:17:38;;;;;;;;;;;4.50;99.90;;;;;;5161898;28;20061;-76
2022/01/18 10:20:20;;;;;;;26.98;11.90;;;4.40;99.90;;;;;;5167015;28;19940;-76
2022/01/18 10:22:53;;;;;;;28.67;13.13;;;;;;;;;;5165137;28;20057;-77
2022/01/18 10:25:28;;;;;;;34.88;16.00;;;4.40;99.90;;;;;;5165797;28;20042;-75
2022/01/18 10:28:01;;;;;;;32.20;16.17;;;;;;;;;;5163912;28;20042;-75
2022/01/18 10:30:45;;;;;;;32.08;15.32;;;;;;;;;;5164223;28;20054;-76
2022/01/18 10:33:22;;;;;;;33.88;15.82;;;;;;;;;;5179771;28;20060;-77
2022/01/18 10:36:14;;;;;;;34.05;14.95;;;4.40;99.90;;;;;;5164287;28;20509;-75
2022/01/18 10:38:48;;;;;;;31.88;12.43;;;4.30;99.90;;;;;;5161160;28;20062;-76
2022/01/18 10:41:34;;;;;;;35.88;11.70;;;4.30;99.90;;;;;;5182104;28;20045;-75
2022/01/18 10:44:08;;;;;;;;;;;4.30;99.90;;;;;;5160624;28;20057;-77
2022/01/18 10:46:55;;;;;;;;;;;4.20;99.90;;;;;;5165016;28;19921;-76
2022/01/18 10:49:30;;;;;;;24.73;10.38;;;4.20;99.90;;;;;;5167951;28;19929;-76
2022/01/18 10:52:15;;;;;;;21.85;9.55;;;4.30;99.90;;;;;;5154792;28;20058;-77
2022/01/18 10:54:54;;;;;;;35.95;12.38;;;4.20;99.90;;;;;;5173148;28;20057;-76
2022/01/18 10:57:33;;;;;;;33.22;10.63;;;4.20;99.90;;;;;;5169896;28;20057;-77
2022/01/18 11:00:32;;;;;;;25.92;10.15;;;4.20;99.90;;;;;;5148676;28;26976;-77
2022/01/18 11:03:07;;;;;;;23.15;9.43;;;;;;;;;;5145981;28;20055;-77
2022/01/18 11:05:43;;;;;;;25.48;9.63;;;4.20;99.90;;;;;;5147267;28;20399;-77
2022/01/18 11:08:16;;;;;;;25.30;9.90;;;;;;;;;;5150552;28;20061;-77
2022/01/18 11:10:50;;;;;;;40.25;10.55;;;;;;;;;;5155386;28;20054;-76
2022/01/18 11:13:44;;;;;;;22.42;10.85;;;;;;;;;;5187056;28;20057;-77
2022/01/18 11:16:25;;;;;;;34.22;10.68;;;;;;;;;;5172190;28;20525;-75
2022/01/18 11:18:58;;;;;;;25.23;9.52;;;;;;;;;;5146038;28;20049;-75
2022/01/18 11:21:31;;;;;;;27.20;8.70;;;;;;;;;;5162324;28;20042;-77
2022/01/18 11:24:04;;;;;;;26.05;9.15;;;;;;;;;;5158014;28;20304;-77
2022/01/18 11:26:38;;;;;;;22.43;9.53;;;;;;;;;;5140602;28;20690;-75
2022/01/18 11:29:12;;;;;;;21.63;8.73;;;5.80;99.90;;;;;;5147194;28;20289;-75
2022/01/18 11:31:46;;;;;;;24.13;8.40;;;4.40;99.90;;;;;;5148993;28;20050;-77
2022/01/18 11:34:41;;;;;;;;;;;4.40;99.90;;;;;;5149450;28;20041;-75
2022/01/18 11:37:14;;;;;;;21.30;8.52;;;;;;;;;;5148386;28;20234;-76
2022/01/18 11:40:07;;;;;;;17.58;7.88;;;5.40;99.90;;;;;;5151847;28;20592;-76
2022/01/18 11:42:55;;;;;;;24.70;9.10;;;4.50;99.90;;;;;;5151209;28;20049;-76
2022/01/18 11:45:29;;;;;;;22.77;8.02;;;4.90;99.90;;;;;;5155663;28;20046;-78
2022/01/18 11:48:19;;;;;;;18.65;8.35;;;4.60;99.90;;;;;;5173348;28;20064;-75
2022/01/18 11:51:05;;;;;;;19.27;7.40;;;4.60;99.90;;;;;;5188421;28;20508;-75
2022/01/18 11:56:13;;;;;;;;;;;4.70;99.90;;;;;;5171907;28;20381;-75
2022/01/18 11:59:11;;;;;;;24.95;7.63;;;4.70;99.90;;;;;;5168783;28;19928;-77
2022/01/18 12:01:49;;;;;;;15.30;6.30;;;4.70;99.90;;;;;;5166169;28;20378;-76
2022/01/18 12:04:46;;;;;;;17.48;6.40;;;2.50;99.90;;;;;;5169392;28;21374;-76
2022/01/18 12:07:33;;;;;;;16.95;6.85;;;4.70;99.90;;;;;;5149742;28;20045;-77
2022/01/18 12:10:20;;;;;;;22.95;7.53;;;6.00;99.90;;;;;;5136088;28;20048;-77
2022/01/18 12:12:54;;;;;;;17.83;7.00;;;5.00;99.90;;;;;;5172397;28;20041;-76
2022/01/18 12:15:47;;;;;;;16.00;6.32;;;5.00;99.90;;;;;;5132059;28;20477;-75
2022/01/18 12:18:22;;;;;;;22.95;6.22;;;4.80;99.90;;;;;;5119172;28;20048;-76
2022/01/18 12:21:01;;;;;;;17.63;5.00;;;4.70;99.90;;;;;;5148361;28;20049;-75
2022/01/18 12:23:34;;;;;;;12.73;4.82;;;5.40;99.90;;;;;;5143304;28;20048;-74
2022/01/18 12:26:28;;;;;;;19.07;5.97;;;4.70;99.90;;;;;;5135238;28;20061;-75
2022/01/18 12:34:46;;;;;;;15.27;5.28;;;4.60;99.90;;;;;;5138311;28;20390;-76
2022/01/18 12:37:24;;;;;;;19.95;5.97;;;;;;;;;;5151803;28;20499;-75
2022/01/18 12:45:25;;;;;;;15.85;6.28;;;4.70;99.90;;;;;;5143513;28;20037;-74
2022/01/18 12:48:02;;;;;;;19.23;5.07;;;3.70;99.90;;;;;;5152257;28;20046;-76
2022/01/18 12:50:37;;;;;;;15.55;5.13;;;5.60;99.90;;;;;;5138568;28;21527;-75
2022/01/18 12:53:14;;;;;;;13.65;5.15;;;3.80;99.90;;;;;;5100235;28;20046;-76
2022/01/18 12:55:57;;;;;;;18.80;5.18;;;4.60;99.90;;;;;;5137473;28;20046;-75
2022/01/18 12:58:40;;;;;;;14.85;4.65;;;4.70;99.90;;;;;;5140819;28;20068;-76
2022/01/18 13:01:27;;;;;;;18.50;5.40;;;4.60;99.90;;;;;;5146451;28;20585;-75
2022/01/18 13:04:00;;;;;;;18.58;5.90;;;;;;;;;;5155027;28;20038;-75
2022/01/18 13:06:35;;;;;;;20.55;5.05;;;;;;;;;;5152119;28;20049;-74
2022/01/18 13:09:08;;;;;;;19.77;4.80;;;;;;;;;;5114750;28;20053;-73
2022/01/18 13:11:42;;;;;;;15.05;4.18;;;4.70;99.90;;;;;;5115507;28;20881;-74
2022/01/18 13:14:15;;;;;;;;;;;4.70;99.90;;;;;;5124449;28;20050;-75
2022/01/18 13:22:59;;;;;;;25.33;4.97;;;4.70;99.90;;;;;;5118996;28;20038;-78
2022/01/18 13:25:47;;;;;;;21.33;5.40;;;4.60;99.90;;;;;;5136533;28;20046;-76
2022/01/18 13:28:20;;;;;;;18.58;5.78;;;;;;;;;;5111369;28;20419;-76
2022/01/18 13:30:58;;;;;;;17.10;5.93;;;5.60;99.90;;;;;;5124565;28;20066;-77
2022/01/18 13:33:49;;;;;;;17.80;6.10;;;4.60;99.90;;;;;;5098764;28;20058;-76
2022/01/18 13:36:23;;;;;;;14.82;5.15;;;4.60;99.90;;;;;;5116520;28;20634;-78
2022/01/18 13:38:56;;;;;;;;;;;4.60;99.90;;;;;;5106167;28;20923;-77
2022/01/18 13:41:29;;;;;;;24.63;6.35;;;;;;;;;;5101390;28;19936;-77
2022/01/18 13:44:05;;;;;;;15.37;6.40;;;4.50;99.90;;;;;;5110784;28;20165;-77
2022/01/18 13:46:38;;;;;;;10.43;5.40;;;;;;;;;;5124282;28;20058;-79
2022/01/18 13:49:11;;;;;;;16.00;5.35;;;;;;;;;;5106296;28;20046;-76
2022/01/18 13:52:07;;;;;;;15.45;5.28;;;4.90;99.90;;;;;;5126535;28;20053;-76
2022/01/18 13:54:51;;;;;;;18.85;6.70;;;4.70;99.90;;;;;;5136429;28;20045;-75
2022/01/18 13:57:23;;;;;;;;;;;4.70;99.90;;;;;;5109150;28;20053;-76
2022/01/18 13:59:56;;;;;;;12.80;5.60;;;6.20;99.90;;;;;;5099535;28;19932;-77
2022/01/18 14:02:42;;;;;;;20.08;5.97;;;5.50;99.90;;;;;;5140723;28;20046;-75
2022/01/18 14:05:18;;;;;;;12.00;5.95;;;;;;;;;;5114469;28;20657;-76
2022/01/18 14:08:06;;;;;;;31.40;7.13;;;4.70;99.90;;;;;;5113742;28;20531;-76
2022/01/18 14:10:39;;;;;;;13.00;6.32;;;4.10;99.90;;;;;;5121929;28;20038;-76
2022/01/18 14:13:30;;;;;;;10.93;5.55;;;6.00;99.90;;;;;;4809655;28;10000529;-75
2022/01/18 14:16:36;;;;;;;16.13;5.90;;;4.70;99.90;;;;;;5120414;28;20122;-76
2022/01/18 14:19:10;;;;;;;16.98;5.60;;;4.70;99.90;;;;;;5129680;28;20049;-75
2022/01/18 14:21:45;;;;;;;16.08;5.80;;;4.80;99.90;;;;;;5142094;28;20045;-77
2022/01/18 14:24:26;;;;;;;18.70;5.95;;;4.70;99.90;;;;;;5104018;28;20045;-78
2022/01/18 14:27:01;;;;;;;18.23;5.90;;;4.70;99.90;;;;;;5148986;28;20049;-77
2022/01/18 14:29:43;;;;;;;20.77;6.32;;;4.60;99.90;;;;;;5139686;28;20763;-76
2022/01/18 14:32:31;;;;;;;24.65;6.78;;;4.60;99.40;;;;;;5144854;28;20538;-76
2022/01/18 14:35:17;;;;;;;15.48;6.05;;;6.10;99.90;;;;;;5129298;28;20105;-76
2022/01/18 14:37:50;;;;;;;17.80;5.20;;;;;;;;;;5138720;28;20045;-76
2022/01/18 14:40:34;;;;;;;19.67;5.38;;;3.30;98.40;;;;;;5134178;28;20987;-74
2022/01/18 14:43:15;;;;;;;14.68;5.60;;;4.50;99.00;;;;;;5129863;28;20057;-76
2022/01/18 14:48:33;;;;;;;10.77;4.90;;;4.50;99.30;;;;;;5116310;28;20058;-75
2022/01/18 14:51:06;;;;;;;13.88;5.03;;;;;;;;;;5094693;28;20770;-77
2022/01/18 14:53:38;;;;;;;14.57;4.68;;;;;;;;;;5095870;28;20051;-75
2022/01/18 14:56:11;;;;;;;14.57;4.75;;;;;;;;;;5108649;28;20045;-75
2022/01/18 14:58:44;;;;;;;11.90;5.45;;;;;;;;;;5111451;28;20709;-77
2022/01/18 15:01:18;;;;;;;15.13;4.47;;;;;;;;;;5128740;28;20042;-76
2022/01/18 15:03:51;;;;;;;16.23;4.90;;;;;;;;;;5114382;28;20034;-76
2022/01/18 15:06:25;;;;;;;10.55;4.47;;;3.20;99.70;;;;;;5118067;28;20046;-75
2022/01/18 15:08:58;;;;;;;11.52;5.15;;;;;;;;;;5106722;28;20050;-76
2022/01/18 15:11:31;;;;;;;12.10;4.68;;;;;;;;;;5092201;28;20053;-75
2022/01/18 15:14:04;;;;;;;12.60;4.90;;;4.60;99.50;;;;;;5068488;28;20046;-75
2022/01/18 15:16:37;;;;;;;13.88;5.13;;;;;;;;;;5080730;28;20359;-75
2022/01/18 15:19:11;;;;;;;14.18;5.00;;;;;;;;;;5068256;28;20070;-75
2022/01/18 15:21:43;;;;;;;;;;;4.60;98.90;;;;;;5066630;28;21940;-76
2022/01/18 15:24:16;;;;;;;9.77;4.97;;;;;;;;;;5087349;28;20589;-75
2022/01/18 15:26:49;;;;;;;15.30;5.22;;;;;;;;;;5074896;28;20185;-76
2022/01/18 15:29:22;;;;;;;14.82;5.10;;;;;;;;;;5104788;28;20275;-76
2022/01/18 15:31:54;;;;;;;13.75;4.88;;;;;;;;;;5110565;28;21001;-76
2022/01/18 15:34:27;;;;;;;13.70;4.23;;;;;;;;;;5117113;28;20058;-77
2022/01/18 15:37:00;;;;;;;15.07;4.70;;;;;;;;;;5096543;28;21479;-76
2022/01/18 15:39:34;;;;;;;11.75;4.55;;;;;;;;;;5108271;28;20048;-76
2022/01/18 15:42:06;;;;;;;16.35;4.90;;;4.20;99.00;;;;;;5115507;28;20042;-76
2022/01/18 15:44:40;;;;;;;15.68;5.03;;;;;;;;;;5141982;28;20049;-76
2022/01/18 15:47:14;;;;;;;;;;;4.40;98.00;;;;;;5137224;28;20049;-75
2022/01/18 15:49:47;;;;;;;13.15;4.68;;;;;;;;;;5120027;28;19932;-75
2022/01/18 15:52:19;;;;;;;22.55;4.82;;;;;;;;;;5122810;28;20624;-75